sensor_id;sensor_type;location;lat;lon;timestamp;temperature;humidity
46231;DHT22;31949;51.404;-0.038;2023-02-19T00:01:36;10.20;99.90
46231;DHT22;31949;51.404;-0.038;2023-02-19T00:04:06;10.20;99.90
46231;DHT22;31949;51.404;-0.038;2023-02-19T00:06:35;10.20;99.90
46231;DHT22;31949;51.404;-0.038;2023-02-19T00:09:03;10.10;99.90
46231;DHT22;31949;51.404;-0.038;2023-02-19T00:11:33;10.10;99.90
46231;DHT22;31949;51.404;-0.038;2023-02-19T00:14:02;10.10;99.90
46231;DHT22;31949;51.404;-0.038;2023-02-19T00:16:33;10.10;99.90
46231;DHT22;31949;51.404;-0.038;2023-02-19T00:19:03;10.10;99.90
46231;DHT22;31949;51.404;-0.038;2023-02-19T00:21:30;10.10;99.90
46231;DHT22;31949;51.404;-0.038;2023-02-19T00:24:01;10.10;99.90
46231;DHT22;31949;51.404;-0.038;2023-02-19T00:26:29;10.00;99.90
46231;DHT22;31949;51.404;-0.038;2023-02-19T00:28:57;10.10;99.90
46231;DHT22;31949;51.404;-0.038;2023-02-19T00:31:27;10.00;99.90
46231;DHT22;31949;51.404;-0.038;2023-02-19T00:34:04;10.00;99.90
46231;DHT22;31949;51.404;-0.038;2023-02-19T00:36:32;10.00;99.90
46231;DHT22;31949;51.404;-0.038;2023-02-19T00:39:01;10.10;99.90
46231;DHT22;31949;51.404;-0.038;2023-02-19T00:41:28;10.10;99.90
46231;DHT22;31949;51.404;-0.038;2023-02-19T00:44:02;10.20;99.90
46231;DHT22;31949;51.404;-0.038;2023-02-19T00:46:32;10.10;99.90
46231;DHT22;31949;51.404;-0.038;2023-02-19T00:49:03;10.10;99.90
46231;DHT22;31949;51.404;-0.038;2023-02-19T00:51:33;10.10;99.90
46231;DHT22;31949;51.404;-0.038;2023-02-19T00:54:01;10.20;99.90
46231;DHT22;31949;51.404;-0.038;2023-02-19T00:56:28;10.10;99.90
46231;DHT22;31949;51.404;-0.038;2023-02-19T00:58:56;10.10;99.90
46231;DHT22;31949;51.404;-0.038;2023-02-19T01:01:23;10.00;99.90
46231;DHT22;31949;51.404;-0.038;2023-02-19T01:03:51;10.00;99.90
46231;DHT22;31949;51.404;-0.038;2023-02-19T01:06:19;10.00;99.90
46231;DHT22;31949;51.404;-0.038;2023-02-19T01:08:47;10.00;99.90
46231;DHT22;31949;51.404;-0.038;2023-02-19T01:11:15;10.00;99.90
46231;DHT22;31949;51.404;-0.038;2023-02-19T01:13:43;9.90;99.90
46231;DHT22;31949;51.404;-0.038;2023-02-19T01:16:19;9.90;99.90
46231;DHT22;31949;51.404;-0.038;2023-02-19T01:18:47;9.90;99.90
46231;DHT22;31949;51.404;-0.038;2023-02-19T01:21:19;9.90;99.90
46231;DHT22;31949;51.404;-0.038;2023-02-19T01:23:48;9.90;99.90
46231;DHT22;31949;51.404;-0.038;2023-02-19T01:26:19;9.80;99.90
46231;DHT22;31949;51.404;-0.038;2023-02-19T01:28:46;9.90;99.90
46231;DHT22;31949;51.404;-0.038;2023-02-19T01:31:17;9.80;99.90
46231;DHT22;31949;51.404;-0.038;2023-02-19T01:33:51;9.80;99.90
46231;DHT22;31949;51.404;-0.038;2023-02-19T01:36:18;9.80;99.90
46231;DHT22;31949;51.404;-0.038;2023-02-19T01:38:46;9.90;99.90
46231;DHT22;31949;51.404;-0.038;2023-02-19T01:41:16;9.90;99.90
46231;DHT22;31949;51.404;-0.038;2023-02-19T01:44:04;9.90;99.90
46231;DHT22;31949;51.404;-0.038;2023-02-19T01:46:38;9.90;99.90
46231;DHT22;31949;51.404;-0.038;2023-02-19T01:51:57;10.00;99.90
46231;DHT22;31949;51.404;-0.038;2023-02-19T01:54:27;10.00;99.90
46231;DHT22;31949;51.404;-0.038;2023-02-19T01:56:56;10.00;99.90
46231;DHT22;31949;51.404;-0.038;2023-02-19T01:59:24;9.90;99.90
46231;DHT22;31949;51.404;-0.038;2023-02-19T02:01:52;9.90;99.90
46231;DHT22;31949;51.404;-0.038;2023-02-19T02:04:19;9.90;99.90
46231;DHT22;31949;51.404;-0.038;2023-02-19T02:06:52;9.80;99.90
46231;DHT22;31949;51.404;-0.038;2023-02-19T02:09:22;9.80;99.90
46231;DHT22;31949;51.404;-0.038;2023-02-19T02:12:08;9.70;99.90
46231;DHT22;31949;51.404;-0.038;2023-02-19T02:14:39;9.70;99.90
46231;DHT22;31949;51.404;-0.038;2023-02-19T02:17:19;9.60;99.90
46231;DHT22;31949;51.404;-0.038;2023-02-19T02:25:39;9.50;99.90
46231;DHT22;31949;51.404;-0.038;2023-02-19T02:30:48;9.40;99.90
46231;DHT22;31949;51.404;-0.038;2023-02-19T02:33:27;9.40;99.90
46231;DHT22;31949;51.404;-0.038;2023-02-19T02:38:30;9.30;99.90
46231;DHT22;31949;51.404;-0.038;2023-02-19T02:40:59;9.30;99.90
46231;DHT22;31949;51.404;-0.038;2023-02-19T02:43:26;9.30;99.90
46231;DHT22;31949;51.404;-0.038;2023-02-19T02:45:53;9.30;99.90
46231;DHT22;31949;51.404;-0.038;2023-02-19T02:51:14;9.20;99.90
46231;DHT22;31949;51.404;-0.038;2023-02-19T02:56:47;9.20;99.90
46231;DHT22;31949;51.404;-0.038;2023-02-19T02:59:18;9.20;99.90
46231;DHT22;31949;51.404;-0.038;2023-02-19T03:02:16;9.20;99.90
46231;DHT22;31949;51.404;-0.038;2023-02-19T03:08:23;9.10;99.90
46231;DHT22;31949;51.404;-0.038;2023-02-19T03:11:05;9.10;99.90
46231;DHT22;31949;51.404;-0.038;2023-02-19T03:14:07;9.00;99.90
46231;DHT22;31949;51.404;-0.038;2023-02-19T03:16:56;9.00;99.90
46231;DHT22;31949;51.404;-0.038;2023-02-19T03:19:48;9.00;99.90
46231;DHT22;31949;51.404;-0.038;2023-02-19T03:22:21;9.00;99.90
46231;DHT22;31949;51.404;-0.038;2023-02-19T03:24:56;9.00;99.90
46231;DHT22;31949;51.404;-0.038;2023-02-19T03:27:47;9.00;99.90
46231;DHT22;31949;51.404;-0.038;2023-02-19T03:30:24;9.00;99.90
46231;DHT22;31949;51.404;-0.038;2023-02-19T03:33:00;9.00;99.90
46231;DHT22;31949;51.404;-0.038;2023-02-19T03:35:41;9.10;99.90
46231;DHT22;31949;51.404;-0.038;2023-02-19T03:38:23;9.10;99.90
46231;DHT22;31949;51.404;-0.038;2023-02-19T03:41:03;9.10;99.90
46231;DHT22;31949;51.404;-0.038;2023-02-19T03:43:43;9.10;99.90
46231;DHT22;31949;51.404;-0.038;2023-02-19T03:48:54;9.20;99.90
46231;DHT22;31949;51.404;-0.038;2023-02-19T03:57:25;9.10;99.90
46231;DHT22;31949;51.404;-0.038;2023-02-19T04:00:20;9.00;99.90
46231;DHT22;31949;51.404;-0.038;2023-02-19T04:06:03;9.00;99.90
46231;DHT22;31949;51.404;-0.038;2023-02-19T04:08:34;8.90;99.90
46231;DHT22;31949;51.404;-0.038;2023-02-19T04:11:05;8.90;99.90
46231;DHT22;31949;51.404;-0.038;2023-02-19T04:13:41;8.90;99.90
46231;DHT22;31949;51.404;-0.038;2023-02-19T04:16:16;8.90;99.90
46231;DHT22;31949;51.404;-0.038;2023-02-19T04:18:49;8.80;99.90
46231;DHT22;31949;51.404;-0.038;2023-02-19T04:21:19;8.80;99.90
46231;DHT22;31949;51.404;-0.038;2023-02-19T04:23:48;8.80;99.90
46231;DHT22;31949;51.404;-0.038;2023-02-19T04:26:16;8.70;99.90
46231;DHT22;31949;51.404;-0.038;2023-02-19T04:28:46;8.80;99.90
46231;DHT22;31949;51.404;-0.038;2023-02-19T04:31:14;8.80;99.90
46231;DHT22;31949;51.404;-0.038;2023-02-19T04:33:41;8.90;99.90
46231;DHT22;31949;51.404;-0.038;2023-02-19T04:36:09;8.90;99.90
46231;DHT22;31949;51.404;-0.038;2023-02-19T04:38:37;9.00;99.90
46231;DHT22;31949;51.404;-0.038;2023-02-19T04:41:04;9.00;99.90
46231;DHT22;31949;51.404;-0.038;2023-02-19T04:43:32;9.10;99.90
46231;DHT22;31949;51.404;-0.038;2023-02-19T04:46:00;9.10;99.90
46231;DHT22;31949;51.404;-0.038;2023-02-19T04:48:28;9.10;99.90
46231;DHT22;31949;51.404;-0.038;2023-02-19T04:50:55;9.10;99.90
46231;DHT22;31949;51.404;-0.038;2023-02-19T04:53:22;9.10;99.90
46231;DHT22;31949;51.404;-0.038;2023-02-19T04:55:50;9.10;99.90
46231;DHT22;31949;51.404;-0.038;2023-02-19T04:58:19;9.20;99.90
46231;DHT22;31949;51.404;-0.038;2023-02-19T05:00:50;9.20;99.90
46231;DHT22;31949;51.404;-0.038;2023-02-19T05:03:18;9.20;99.90
46231;DHT22;31949;51.404;-0.038;2023-02-19T05:05:45;9.30;99.90
46231;DHT22;31949;51.404;-0.038;2023-02-19T05:08:12;9.20;99.90
46231;DHT22;31949;51.404;-0.038;2023-02-19T05:10:40;9.30;99.90
46231;DHT22;31949;51.404;-0.038;2023-02-19T05:13:07;9.30;99.90
46231;DHT22;31949;51.404;-0.038;2023-02-19T05:15:35;9.30;99.90
46231;DHT22;31949;51.404;-0.038;2023-02-19T05:18:02;9.30;99.90
46231;DHT22;31949;51.404;-0.038;2023-02-19T05:20:30;9.40;99.90
46231;DHT22;31949;51.404;-0.038;2023-02-19T05:22:57;9.40;99.90
46231;DHT22;31949;51.404;-0.038;2023-02-19T05:25:24;9.40;99.90
46231;DHT22;31949;51.404;-0.038;2023-02-19T05:27:51;9.30;99.90
46231;DHT22;31949;51.404;-0.038;2023-02-19T05:30:38;9.30;99.90
46231;DHT22;31949;51.404;-0.038;2023-02-19T05:33:05;9.20;99.90
46231;DHT22;31949;51.404;-0.038;2023-02-19T05:35:32;9.20;99.90
46231;DHT22;31949;51.404;-0.038;2023-02-19T05:38:00;9.20;99.90
46231;DHT22;31949;51.404;-0.038;2023-02-19T05:40:27;9.20;99.90
46231;DHT22;31949;51.404;-0.038;2023-02-19T05:42:54;9.20;99.90
46231;DHT22;31949;51.404;-0.038;2023-02-19T05:45:21;9.10;99.90
46231;DHT22;31949;51.404;-0.038;2023-02-19T05:47:49;9.10;99.90
46231;DHT22;31949;51.404;-0.038;2023-02-19T05:50:16;9.00;99.90
46231;DHT22;31949;51.404;-0.038;2023-02-19T05:52:44;9.10;99.90
46231;DHT22;31949;51.404;-0.038;2023-02-19T05:55:11;9.00;99.90
46231;DHT22;31949;51.404;-0.038;2023-02-19T05:57:39;9.00;99.90
46231;DHT22;31949;51.404;-0.038;2023-02-19T06:00:15;8.90;99.90
46231;DHT22;31949;51.404;-0.038;2023-02-19T06:02:43;9.00;99.90
46231;DHT22;31949;51.404;-0.038;2023-02-19T06:05:10;9.00;99.90
46231;DHT22;31949;51.404;-0.038;2023-02-19T06:07:38;9.00;99.90
46231;DHT22;31949;51.404;-0.038;2023-02-19T06:10:06;9.00;99.90
46231;DHT22;31949;51.404;-0.038;2023-02-19T06:12:33;8.90;99.90
46231;DHT22;31949;51.404;-0.038;2023-02-19T06:15:01;8.90;99.90
46231;DHT22;31949;51.404;-0.038;2023-02-19T06:17:31;8.80;99.90
46231;DHT22;31949;51.404;-0.038;2023-02-19T06:19:59;8.80;99.90
46231;DHT22;31949;51.404;-0.038;2023-02-19T06:22:27;8.80;99.90
46231;DHT22;31949;51.404;-0.038;2023-02-19T06:24:54;8.80;99.90
46231;DHT22;31949;51.404;-0.038;2023-02-19T06:27:21;8.80;99.90
46231;DHT22;31949;51.404;-0.038;2023-02-19T06:29:49;8.80;99.90
46231;DHT22;31949;51.404;-0.038;2023-02-19T06:32:16;8.70;99.90
46231;DHT22;31949;51.404;-0.038;2023-02-19T06:34:44;8.70;99.90
46231;DHT22;31949;51.404;-0.038;2023-02-19T06:37:12;8.60;99.90
46231;DHT22;31949;51.404;-0.038;2023-02-19T06:39:39;8.60;99.90
46231;DHT22;31949;51.404;-0.038;2023-02-19T06:42:06;8.60;99.90
46231;DHT22;31949;51.404;-0.038;2023-02-19T06:44:33;8.50;99.90
46231;DHT22;31949;51.404;-0.038;2023-02-19T06:47:01;8.50;99.90
46231;DHT22;31949;51.404;-0.038;2023-02-19T06:49:28;8.50;99.90
46231;DHT22;31949;51.404;-0.038;2023-02-19T06:51:55;8.40;99.90
46231;DHT22;31949;51.404;-0.038;2023-02-19T06:54:22;8.50;99.90
46231;DHT22;31949;51.404;-0.038;2023-02-19T06:56:51;8.50;99.90
46231;DHT22;31949;51.404;-0.038;2023-02-19T06:59:19;8.40;99.90
46231;DHT22;31949;51.404;-0.038;2023-02-19T07:01:46;8.40;99.90
46231;DHT22;31949;51.404;-0.038;2023-02-19T07:04:13;8.40;99.90
46231;DHT22;31949;51.404;-0.038;2023-02-19T07:06:42;8.50;99.90
46231;DHT22;31949;51.404;-0.038;2023-02-19T07:09:10;8.30;99.90
46231;DHT22;31949;51.404;-0.038;2023-02-19T07:11:38;8.40;99.90
46231;DHT22;31949;51.404;-0.038;2023-02-19T07:14:07;8.30;99.90
46231;DHT22;31949;51.404;-0.038;2023-02-19T07:16:39;8.30;99.90
46231;DHT22;31949;51.404;-0.038;2023-02-19T07:19:06;8.30;99.90
46231;DHT22;31949;51.404;-0.038;2023-02-19T07:21:33;8.30;99.90
46231;DHT22;31949;51.404;-0.038;2023-02-19T07:24:04;8.30;99.90
46231;DHT22;31949;51.404;-0.038;2023-02-19T07:26:31;8.40;99.90
46231;DHT22;31949;51.404;-0.038;2023-02-19T07:28:59;8.40;99.90
46231;DHT22;31949;51.404;-0.038;2023-02-19T07:31:27;8.40;99.90
46231;DHT22;31949;51.404;-0.038;2023-02-19T07:33:56;8.30;99.90
46231;DHT22;31949;51.404;-0.038;2023-02-19T07:36:24;8.30;99.90
46231;DHT22;31949;51.404;-0.038;2023-02-19T07:38:55;8.40;99.90
46231;DHT22;31949;51.404;-0.038;2023-02-19T07:41:24;8.40;99.90
46231;DHT22;31949;51.404;-0.038;2023-02-19T07:43:55;8.40;99.90
46231;DHT22;31949;51.404;-0.038;2023-02-19T07:46:22;8.50;99.90
46231;DHT22;31949;51.404;-0.038;2023-02-19T07:48:50;8.40;99.90
46231;DHT22;31949;51.404;-0.038;2023-02-19T07:51:18;8.40;99.90
46231;DHT22;31949;51.404;-0.038;2023-02-19T07:53:46;8.50;99.90
46231;DHT22;31949;51.404;-0.038;2023-02-19T07:56:14;8.50;99.90
46231;DHT22;31949;51.404;-0.038;2023-02-19T07:58:42;8.60;99.90
46231;DHT22;31949;51.404;-0.038;2023-02-19T08:01:18;8.60;99.90
46231;DHT22;31949;51.404;-0.038;2023-02-19T08:03:45;8.60;99.90
46231;DHT22;31949;51.404;-0.038;2023-02-19T08:06:15;8.70;99.90
46231;DHT22;31949;51.404;-0.038;2023-02-19T08:08:43;8.60;99.90
46231;DHT22;31949;51.404;-0.038;2023-02-19T08:11:10;8.60;99.90
46231;DHT22;31949;51.404;-0.038;2023-02-19T08:13:56;8.60;99.90
46231;DHT22;31949;51.404;-0.038;2023-02-19T08:16:23;8.60;99.90
46231;DHT22;31949;51.404;-0.038;2023-02-19T08:19:08;8.60;99.90
46231;DHT22;31949;51.404;-0.038;2023-02-19T08:21:36;8.70;99.90
46231;DHT22;31949;51.404;-0.038;2023-02-19T08:24:03;8.70;99.90
46231;DHT22;31949;51.404;-0.038;2023-02-19T08:26:32;8.70;99.90
46231;DHT22;31949;51.404;-0.038;2023-02-19T08:28:59;8.70;99.90
46231;DHT22;31949;51.404;-0.038;2023-02-19T08:31:26;8.80;99.90
46231;DHT22;31949;51.404;-0.038;2023-02-19T08:33:54;8.80;99.90
46231;DHT22;31949;51.404;-0.038;2023-02-19T08:36:21;8.80;99.90
46231;DHT22;31949;51.404;-0.038;2023-02-19T08:38:48;8.80;99.90
46231;DHT22;31949;51.404;-0.038;2023-02-19T08:41:15;8.80;99.90
46231;DHT22;31949;51.404;-0.038;2023-02-19T08:43:43;8.80;99.90
46231;DHT22;31949;51.404;-0.038;2023-02-19T08:46:11;8.80;99.90
46231;DHT22;31949;51.404;-0.038;2023-02-19T08:48:39;8.80;99.90
46231;DHT22;31949;51.404;-0.038;2023-02-19T08:51:08;8.80;99.90
46231;DHT22;31949;51.404;-0.038;2023-02-19T08:53:37;8.80;99.90
46231;DHT22;31949;51.404;-0.038;2023-02-19T08:56:06;8.90;99.90
46231;DHT22;31949;51.404;-0.038;2023-02-19T08:58:34;8.90;99.90
46231;DHT22;31949;51.404;-0.038;2023-02-19T09:01:02;8.90;99.90
46231;DHT22;31949;51.404;-0.038;2023-02-19T09:03:30;8.90;99.90
46231;DHT22;31949;51.404;-0.038;2023-02-19T09:05:57;9.00;99.90
46231;DHT22;31949;51.404;-0.038;2023-02-19T09:08:24;8.90;99.90
46231;DHT22;31949;51.404;-0.038;2023-02-19T09:10:59;9.00;99.90
46231;DHT22;31949;51.404;-0.038;2023-02-19T09:13:27;9.00;99.90
46231;DHT22;31949;51.404;-0.038;2023-02-19T09:15:54;9.10;99.90
46231;DHT22;31949;51.404;-0.038;2023-02-19T09:18:24;9.10;99.90
46231;DHT22;31949;51.404;-0.038;2023-02-19T09:20:51;9.10;99.90
46231;DHT22;31949;51.404;-0.038;2023-02-19T09:23:19;9.10;99.90
46231;DHT22;31949;51.404;-0.038;2023-02-19T09:25:46;9.20;99.90
46231;DHT22;31949;51.404;-0.038;2023-02-19T09:28:13;9.20;99.90
46231;DHT22;31949;51.404;-0.038;2023-02-19T09:30:42;9.30;99.90
46231;DHT22;31949;51.404;-0.038;2023-02-19T09:33:10;9.30;99.90
46231;DHT22;31949;51.404;-0.038;2023-02-19T09:35:38;9.40;99.90
46231;DHT22;31949;51.404;-0.038;2023-02-19T09:38:06;9.50;99.90
46231;DHT22;31949;51.404;-0.038;2023-02-19T09:40:37;9.60;99.90
46231;DHT22;31949;51.404;-0.038;2023-02-19T09:43:15;9.60;99.90
46231;DHT22;31949;51.404;-0.038;2023-02-19T09:45:43;9.70;99.90
46231;DHT22;31949;51.404;-0.038;2023-02-19T09:48:11;9.70;99.90
46231;DHT22;31949;51.404;-0.038;2023-02-19T09:50:41;9.80;99.90
46231;DHT22;31949;51.404;-0.038;2023-02-19T09:53:39;9.80;99.90
46231;DHT22;31949;51.404;-0.038;2023-02-19T09:56:07;9.90;99.90
46231;DHT22;31949;51.404;-0.038;2023-02-19T09:58:51;9.90;99.90
46231;DHT22;31949;51.404;-0.038;2023-02-19T10:01:19;10.00;99.90
46231;DHT22;31949;51.404;-0.038;2023-02-19T10:03:48;10.00;99.90
46231;DHT22;31949;51.404;-0.038;2023-02-19T10:06:21;10.00;99.90
46231;DHT22;31949;51.404;-0.038;2023-02-19T10:08:58;10.10;99.90
46231;DHT22;31949;51.404;-0.038;2023-02-19T10:11:28;10.20;99.90
46231;DHT22;31949;51.404;-0.038;2023-02-19T10:16:29;10.40;99.90
46231;DHT22;31949;51.404;-0.038;2023-02-19T10:18:56;10.40;99.90
46231;DHT22;31949;51.404;-0.038;2023-02-19T10:21:25;10.40;99.90
46231;DHT22;31949;51.404;-0.038;2023-02-19T10:23:55;10.40;99.90
46231;DHT22;31949;51.404;-0.038;2023-02-19T10:26:24;10.50;99.90
46231;DHT22;31949;51.404;-0.038;2023-02-19T10:28:51;10.60;99.90
46231;DHT22;31949;51.404;-0.038;2023-02-19T10:31:23;10.60;99.90
46231;DHT22;31949;51.404;-0.038;2023-02-19T10:33:56;10.60;99.90
46231;DHT22;31949;51.404;-0.038;2023-02-19T10:36:53;10.60;99.90
46231;DHT22;31949;51.404;-0.038;2023-02-19T10:39:47;10.60;99.90
46231;DHT22;31949;51.404;-0.038;2023-02-19T10:42:21;10.50;99.90
46231;DHT22;31949;51.404;-0.038;2023-02-19T10:44:56;10.40;99.90
46231;DHT22;31949;51.404;-0.038;2023-02-19T10:47:29;10.50;99.90
46231;DHT22;31949;51.404;-0.038;2023-02-19T10:49:59;10.60;99.90
46231;DHT22;31949;51.404;-0.038;2023-02-19T10:52:33;10.60;99.90
46231;DHT22;31949;51.404;-0.038;2023-02-19T10:55:15;10.80;99.90
46231;DHT22;31949;51.404;-0.038;2023-02-19T10:57:47;10.90;99.90
46231;DHT22;31949;51.404;-0.038;2023-02-19T11:00:21;10.90;99.90
46231;DHT22;31949;51.404;-0.038;2023-02-19T11:05:59;11.00;99.90
46231;DHT22;31949;51.404;-0.038;2023-02-19T11:08:27;11.10;99.90
46231;DHT22;31949;51.404;-0.038;2023-02-19T11:10:55;11.30;99.90
46231;DHT22;31949;51.404;-0.038;2023-02-19T11:13:27;11.30;99.90
46231;DHT22;31949;51.404;-0.038;2023-02-19T11:15:57;11.40;99.90
46231;DHT22;31949;51.404;-0.038;2023-02-19T11:18:32;11.40;99.90
46231;DHT22;31949;51.404;-0.038;2023-02-19T11:21:04;11.40;99.90
46231;DHT22;31949;51.404;-0.038;2023-02-19T11:23:35;11.40;99.90
46231;DHT22;31949;51.404;-0.038;2023-02-19T11:26:06;11.40;99.90
46231;DHT22;31949;51.404;-0.038;2023-02-19T11:28:42;11.30;99.90
46231;DHT22;31949;51.404;-0.038;2023-02-19T11:31:22;11.30;99.90
46231;DHT22;31949;51.404;-0.038;2023-02-19T11:33:57;11.40;99.90
46231;DHT22;31949;51.404;-0.038;2023-02-19T11:36:35;11.40;99.90
46231;DHT22;31949;51.404;-0.038;2023-02-19T11:53:11;11.60;99.90
46231;DHT22;31949;51.404;-0.038;2023-02-19T12:13:18;12.00;99.90
46231;DHT22;31949;51.404;-0.038;2023-02-19T12:15:59;12.10;99.90
46231;DHT22;31949;51.404;-0.038;2023-02-19T12:27:16;12.30;99.90
46231;DHT22;31949;51.404;-0.038;2023-02-19T12:32:48;12.20;99.90
46231;DHT22;31949;51.404;-0.038;2023-02-19T12:43:51;12.30;99.90
46231;DHT22;31949;51.404;-0.038;2023-02-19T12:46:24;12.40;99.90
46231;DHT22;31949;51.404;-0.038;2023-02-19T12:48:59;12.50;99.90
46231;DHT22;31949;51.404;-0.038;2023-02-19T12:51:40;12.50;99.90
46231;DHT22;31949;51.404;-0.038;2023-02-19T12:54:18;12.60;99.90
46231;DHT22;31949;51.404;-0.038;2023-02-19T13:02:43;12.70;99.90
46231;DHT22;31949;51.404;-0.038;2023-02-19T13:05:18;12.70;99.90
46231;DHT22;31949;51.404;-0.038;2023-02-19T13:10:27;12.70;99.90
46231;DHT22;31949;51.404;-0.038;2023-02-19T13:12:57;12.60;99.90
46231;DHT22;31949;51.404;-0.038;2023-02-19T13:15:36;12.60;99.90
46231;DHT22;31949;51.404;-0.038;2023-02-19T13:18:11;12.50;99.90
46231;DHT22;31949;51.404;-0.038;2023-02-19T13:20:43;12.60;99.90
46231;DHT22;31949;51.404;-0.038;2023-02-19T13:23:21;12.60;99.90
46231;DHT22;31949;51.404;-0.038;2023-02-19T13:37:16;12.60;99.90
46231;DHT22;31949;51.404;-0.038;2023-02-19T13:39:52;12.60;99.90
46231;DHT22;31949;51.404;-0.038;2023-02-19T13:42:34;12.60;99.90
46231;DHT22;31949;51.404;-0.038;2023-02-19T13:45:04;12.50;99.90
46231;DHT22;31949;51.404;-0.038;2023-02-19T13:52:52;12.60;99.90
46231;DHT22;31949;51.404;-0.038;2023-02-19T14:06:05;12.70;99.90
46231;DHT22;31949;51.404;-0.038;2023-02-19T14:08:55;12.70;99.90
46231;DHT22;31949;51.404;-0.038;2023-02-19T14:16:59;12.60;99.90
46231;DHT22;31949;51.404;-0.038;2023-02-19T14:20:08;12.60;99.90
46231;DHT22;31949;51.404;-0.038;2023-02-19T14:23:00;12.60;99.90
46231;DHT22;31949;51.404;-0.038;2023-02-19T14:25:57;12.60;99.90
46231;DHT22;31949;51.404;-0.038;2023-02-19T14:28:39;12.60;99.90
46231;DHT22;31949;51.404;-0.038;2023-02-19T14:31:30;12.70;99.90
46231;DHT22;31949;51.404;-0.038;2023-02-19T14:34:04;12.80;99.90
46231;DHT22;31949;51.404;-0.038;2023-02-19T14:39:17;12.90;99.90
46231;DHT22;31949;51.404;-0.038;2023-02-19T14:41:54;12.90;99.90
46231;DHT22;31949;51.404;-0.038;2023-02-19T14:44:28;13.00;99.90
46231;DHT22;31949;51.404;-0.038;2023-02-19T14:47:02;13.10;99.90
46231;DHT22;31949;51.404;-0.038;2023-02-19T14:57:21;13.20;99.90
46231;DHT22;31949;51.404;-0.038;2023-02-19T15:02:50;13.10;99.90
46231;DHT22;31949;51.404;-0.038;2023-02-19T15:05:22;13.20;99.90
46231;DHT22;31949;51.404;-0.038;2023-02-19T15:07:50;13.10;99.90
46231;DHT22;31949;51.404;-0.038;2023-02-19T15:10:18;13.10;99.90
46231;DHT22;31949;51.404;-0.038;2023-02-19T15:12:52;13.10;99.90
46231;DHT22;31949;51.404;-0.038;2023-02-19T15:15:25;13.10;99.90
46231;DHT22;31949;51.404;-0.038;2023-02-19T15:17:55;13.10;99.90
46231;DHT22;31949;51.404;-0.038;2023-02-19T15:20:25;13.10;99.90
46231;DHT22;31949;51.404;-0.038;2023-02-19T15:22:55;13.00;99.90
46231;DHT22;31949;51.404;-0.038;2023-02-19T15:25:32;13.10;99.90
46231;DHT22;31949;51.404;-0.038;2023-02-19T15:30:45;13.00;99.90
46231;DHT22;31949;51.404;-0.038;2023-02-19T15:33:18;13.00;99.90
46231;DHT22;31949;51.404;-0.038;2023-02-19T15:35:49;13.00;99.90
46231;DHT22;31949;51.404;-0.038;2023-02-19T15:38:16;13.10;99.90
46231;DHT22;31949;51.404;-0.038;2023-02-19T15:40:45;13.10;99.90
46231;DHT22;31949;51.404;-0.038;2023-02-19T15:43:20;13.10;99.90
46231;DHT22;31949;51.404;-0.038;2023-02-19T15:45:51;13.10;99.90
46231;DHT22;31949;51.404;-0.038;2023-02-19T15:48:26;13.10;99.90
46231;DHT22;31949;51.404;-0.038;2023-02-19T15:51:00;13.10;99.90
46231;DHT22;31949;51.404;-0.038;2023-02-19T15:53:39;13.10;99.90
46231;DHT22;31949;51.404;-0.038;2023-02-19T15:56:08;13.10;99.90
46231;DHT22;31949;51.404;-0.038;2023-02-19T16:01:19;13.10;99.90
46231;DHT22;31949;51.404;-0.038;2023-02-19T16:03:47;13.10;99.90
46231;DHT22;31949;51.404;-0.038;2023-02-19T16:06:16;13.10;99.90
46231;DHT22;31949;51.404;-0.038;2023-02-19T16:08:58;13.10;99.90
46231;DHT22;31949;51.404;-0.038;2023-02-19T16:11:37;13.10;99.90
46231;DHT22;31949;51.404;-0.038;2023-02-19T16:19:55;13.10;99.90
46231;DHT22;31949;51.404;-0.038;2023-02-19T16:22:25;13.10;99.90
46231;DHT22;31949;51.404;-0.038;2023-02-19T16:25:04;13.00;99.90
46231;DHT22;31949;51.404;-0.038;2023-02-19T16:27:36;13.10;99.90
46231;DHT22;31949;51.404;-0.038;2023-02-19T16:30:29;13.00;99.90
46231;DHT22;31949;51.404;-0.038;2023-02-19T16:41:26;12.90;99.90
46231;DHT22;31949;51.404;-0.038;2023-02-19T16:43:53;12.80;99.90
46231;DHT22;31949;51.404;-0.038;2023-02-19T16:46:23;12.80;99.90
46231;DHT22;31949;51.404;-0.038;2023-02-19T16:48:50;12.80;99.90
46231;DHT22;31949;51.404;-0.038;2023-02-19T16:51:24;12.70;99.90
46231;DHT22;31949;51.404;-0.038;2023-02-19T16:53:52;12.70;99.90
46231;DHT22;31949;51.404;-0.038;2023-02-19T16:56:20;12.60;99.90
46231;DHT22;31949;51.404;-0.038;2023-02-19T16:58:49;12.60;99.90
46231;DHT22;31949;51.404;-0.038;2023-02-19T17:01:16;12.50;99.90
46231;DHT22;31949;51.404;-0.038;2023-02-19T17:03:45;12.50;99.90
46231;DHT22;31949;51.404;-0.038;2023-02-19T17:06:14;12.50;99.90
46231;DHT22;31949;51.404;-0.038;2023-02-19T17:08:43;12.40;99.90
46231;DHT22;31949;51.404;-0.038;2023-02-19T17:11:13;12.40;99.90
46231;DHT22;31949;51.404;-0.038;2023-02-19T17:13:41;12.40;99.90
46231;DHT22;31949;51.404;-0.038;2023-02-19T17:16:20;12.30;99.90
46231;DHT22;31949;51.404;-0.038;2023-02-19T17:18:49;12.30;99.90
46231;DHT22;31949;51.404;-0.038;2023-02-19T17:21:27;12.20;99.90
46231;DHT22;31949;51.404;-0.038;2023-02-19T17:23:58;12.20;99.90
46231;DHT22;31949;51.404;-0.038;2023-02-19T17:26:28;12.10;99.90
46231;DHT22;31949;51.404;-0.038;2023-02-19T17:28:56;12.10;99.90
46231;DHT22;31949;51.404;-0.038;2023-02-19T17:31:24;12.10;99.90
46231;DHT22;31949;51.404;-0.038;2023-02-19T17:33:52;12.00;99.90
46231;DHT22;31949;51.404;-0.038;2023-02-19T17:36:30;12.00;99.90
46231;DHT22;31949;51.404;-0.038;2023-02-19T17:38:59;11.90;99.90
46231;DHT22;31949;51.404;-0.038;2023-02-19T17:41:27;11.90;99.90
46231;DHT22;31949;51.404;-0.038;2023-02-19T17:43:54;11.80;99.90
46231;DHT22;31949;51.404;-0.038;2023-02-19T17:46:25;11.80;99.90
46231;DHT22;31949;51.404;-0.038;2023-02-19T17:48:53;11.80;99.90
46231;DHT22;31949;51.404;-0.038;2023-02-19T17:51:20;11.80;99.90
46231;DHT22;31949;51.404;-0.038;2023-02-19T17:53:48;11.70;99.90
46231;DHT22;31949;51.404;-0.038;2023-02-19T17:56:18;11.60;99.90
46231;DHT22;31949;51.404;-0.038;2023-02-19T17:58:46;11.60;99.90
46231;DHT22;31949;51.404;-0.038;2023-02-19T18:01:13;11.60;99.90
46231;DHT22;31949;51.404;-0.038;2023-02-19T18:03:41;11.60;99.90
46231;DHT22;31949;51.404;-0.038;2023-02-19T18:06:09;11.50;99.90
46231;DHT22;31949;51.404;-0.038;2023-02-19T18:08:36;11.50;99.90
46231;DHT22;31949;51.404;-0.038;2023-02-19T18:11:05;11.50;99.90
46231;DHT22;31949;51.404;-0.038;2023-02-19T18:13:33;11.50;99.90
46231;DHT22;31949;51.404;-0.038;2023-02-19T18:16:00;11.40;99.90
46231;DHT22;31949;51.404;-0.038;2023-02-19T18:18:27;11.40;99.90
46231;DHT22;31949;51.404;-0.038;2023-02-19T18:20:56;11.40;99.90
46231;DHT22;31949;51.404;-0.038;2023-02-19T18:23:23;11.30;99.90
46231;DHT22;31949;51.404;-0.038;2023-02-19T18:25:51;11.30;99.90
46231;DHT22;31949;51.404;-0.038;2023-02-19T18:28:18;11.30;99.90
46231;DHT22;31949;51.404;-0.038;2023-02-19T18:30:46;11.30;99.90
46231;DHT22;31949;51.404;-0.038;2023-02-19T18:33:13;11.20;99.90
46231;DHT22;31949;51.404;-0.038;2023-02-19T18:35:41;11.20;99.90